Time;durP1;ratioP1;P1;durP2;ratioP2;P2;SDS_P1;SDS_P2;PMS_P1;PMS_P2;Temp;Humidity;BMP_temperature;BMP_pressure;BME280_temperature;BME280_humidity;BME280_pressure;Samples;Min_cycle;Max_cycle;Signal;HPM_P1;HPM_P2
2021/12/24 00:00:22;;;;;;;97.35;43.83;;;;;;;6.65;100.00;100436.41;5003624;28;20378;-65
2021/12/24 00:02:49;;;;;;;97.93;45.17;;;;;;;6.66;100.00;100435.34;5003971;28;20080;-65
2021/12/24 00:05:15;;;;;;;76.03;34.85;;;;;;;6.62;100.00;100436.81;5004951;28;20109;-65
2021/12/24 00:07:40;;;;;;;90.85;44.10;;;;;;;6.59;100.00;100440.00;5003996;28;20216;-65
2021/12/24 00:10:08;;;;;;;91.57;43.85;;;;;;;6.66;100.00;100431.78;5004020;28;20109;-65
2021/12/24 00:12:35;;;;;;;93.07;46.42;;;;;;;6.67;100.00;100425.25;5002900;28;20049;-65
2021/12/24 00:15:12;;;;;;;86.78;44.63;;;;;;;6.65;100.00;100438.28;5004010;28;20136;-65
2021/12/24 00:17:38;;;;;;;76.70;41.70;;;;;;;6.69;100.00;100434.91;5004600;28;20025;-65
2021/12/24 00:37:05;;;;;;;78.78;40.03;;;;;;;6.79;100.00;100417.22;4947897;28;20505;-65
2021/12/24 00:39:30;;;;;;;77.50;40.55;;;;;;;6.76;100.00;100419.34;4995300;28;20041;-65
2021/12/24 00:41:56;;;;;;;73.15;41.95;;;;;;;6.78;100.00;100413.66;5001826;28;20066;-65
2021/12/24 00:44:21;;;;;;;74.75;42.28;;;;;;;6.83;100.00;100413.84;5005325;28;20525;-65
2021/12/24 00:46:46;;;;;;;69.63;41.10;;;;;;;6.88;100.00;100415.94;5008019;28;20034;-65
2021/12/24 00:49:14;;;;;;;75.55;42.78;;;;;;;6.81;100.00;100404.22;5007500;28;20068;-64
2021/12/24 00:56:53;;;;;;;71.32;40.13;;;;;;;6.85;100.00;100411.75;4975151;28;20040;-65
2021/12/24 00:59:18;;;;;;;73.13;40.17;;;;;;;6.95;100.00;100409.41;5006916;28;20484;-65
2021/12/24 01:01:43;;;;;;;78.90;43.25;;;;;;;6.93;100.00;100402.47;5009973;28;20029;-64
2021/12/24 01:04:08;;;;;;;73.75;42.55;;;;;;;6.94;100.00;100401.41;5026618;28;20035;-65
2021/12/24 01:06:34;;;;;;;80.47;45.20;;;;;;;7.00;100.00;100393.19;5026969;28;20041;-65
2021/12/24 01:08:59;;;;;;;77.43;44.05;;;;;;;7.04;100.00;100401.78;5027798;28;20025;-65
2021/12/24 01:11:27;;;;;;;81.47;44.70;;;;;;;6.94;100.00;100399.50;5026082;28;20080;-65
2021/12/24 01:13:52;;;;;;;77.72;42.42;;;;;;;6.99;100.00;100394.25;5026311;28;20022;-65
2021/12/24 01:16:31;;;;;;;83.93;46.53;;;;;;;6.99;100.00;100402.47;5016825;28;20499;-64
2021/12/24 01:23:51;;;;;;;79.80;43.70;;;;;;;7.05;100.00;100384.34;5007087;28;20040;-65
2021/12/24 01:26:32;;;;;;;79.18;44.08;;;;;;;7.07;100.00;100392.31;5006096;28;20022;-65
2021/12/24 01:29:20;;;;;;;75.95;43.72;;;;;;;7.20;100.00;100390.34;5006033;28;20022;-65
2021/12/24 01:42:44;;;;;;;91.90;49.08;;;;;;;7.25;100.00;100385.06;5005818;28;20041;-65
2021/12/24 01:45:19;;;;;;;92.95;48.50;;;;;;;7.37;100.00;100387.09;5015643;28;20119;-65
2021/12/24 01:47:45;;;;;;;96.43;50.38;;;;;;;7.33;100.00;100396.78;5026502;28;20040;-65
2021/12/24 01:50:12;;;;;;;101.18;51.55;;;;;;;7.32;100.00;100401.41;5025135;28;20033;-65
2021/12/24 01:52:38;;;;;;;103.63;51.75;;;;;;;7.32;100.00;100395.09;5005131;28;20376;-65
2021/12/24 01:55:05;;;;;;;115.28;53.85;;;;;;;7.36;100.00;100397.19;5005651;28;20109;-65
2021/12/24 01:57:32;;;;;;;103.07;53.28;;;;;;;7.35;100.00;100395.50;5005761;28;20065;-64
2021/12/24 01:59:58;;;;;;;107.20;51.60;;;;;;;7.37;100.00;100387.09;5007035;28;20022;-65
2021/12/24 02:02:23;;;;;;;117.97;54.05;;;;;;;7.42;100.00;100385.38;5025226;28;20029;-65
2021/12/24 02:04:48;;;;;;;129.52;56.33;;;;;;;7.43;100.00;100389.75;5024917;28;20079;-65
2021/12/24 02:07:14;;;;;;;121.82;56.35;;;;;;;7.42;100.00;100384.53;5024375;28;20028;-65
2021/12/24 02:09:39;;;;;;;109.55;52.17;;;;;;;7.61;100.00;100391.75;5026191;28;20029;-65
2021/12/24 02:12:06;;;;;;;112.70;53.75;;;;;;;7.57;100.00;100387.78;5024470;28;20041;-65
2021/12/24 02:14:36;;;;;;;119.80;55.15;;;;;;;7.58;100.00;100385.88;5020229;28;20481;-65
2021/12/24 02:30:36;;;;;;;106.80;54.05;;;;;;;7.74;100.00;100388.88;5006922;28;20816;-65
2021/12/24 02:33:03;;;;;;;111.82;53.95;;;;;;;7.75;100.00;100389.72;5005915;28;20026;-65
2021/12/24 02:35:28;;;;;;;107.97;53.88;;;;;;;7.84;100.00;100390.28;5005908;28;20026;-65
2021/12/24 02:37:54;;;;;;;110.05;54.08;;;;;;;7.79;100.00;100380.84;5004416;28;20032;-65
2021/12/24 02:40:20;;;;;;;111.28;55.65;;;;;;;7.80;100.00;100382.50;5005175;28;20113;-65
2021/12/24 02:42:50;;;;;;;107.60;50.45;;;;;;;7.83;100.00;100374.94;5004462;28;20591;-65
2021/12/24 02:45:16;;;;;;;111.05;52.70;;;;;;;7.90;100.00;100373.81;5011646;28;20052;-65
2021/12/24 02:47:57;;;;;;;108.85;51.67;;;;;;;7.96;100.00;100363.91;5025616;28;20471;-65
2021/12/24 02:55:34;;;;;;;108.03;51.72;;;;;;;8.00;100.00;100376.03;5006209;28;20087;-65
2021/12/24 02:57:59;;;;;;;107.72;50.83;;;;;;;8.06;100.00;100366.94;5003522;28;20086;-65
2021/12/24 03:00:27;;;;;;;105.47;50.83;;;;;;;8.05;100.00;100368.81;5006099;28;20033;-65
2021/12/24 03:02:54;;;;;;;99.45;46.90;;;;;;;8.05;100.00;100362.50;5017033;23;20049;-65
2021/12/24 03:05:22;;;;;;;105.70;49.03;;;;;;;8.11;100.00;100366.25;5024146;28;20080;-65
2021/12/24 03:07:47;;;;;;;107.60;50.83;;;;;;;8.05;100.00;100357.03;5022349;28;20079;-65
2021/12/24 03:10:16;;;;;;;104.18;49.72;;;;;;;8.05;100.00;100357.88;5023301;28;20025;-65
2021/12/24 03:12:44;;;;;;;111.30;50.58;;;;;;;8.11;100.00;100361.63;5024577;28;20060;-64
2021/12/24 03:15:11;;;;;;;108.40;48.95;;;;;;;8.16;100.00;100353.59;5024873;28;20105;-65
2021/12/24 03:17:36;;;;;;;111.95;50.97;;;;;;;8.13;100.00;100355.94;5024471;28;20022;-65
2021/12/24 03:20:08;;;;;;;108.00;49.42;;;;;;;8.11;100.00;100358.91;5024689;28;20364;-65
2021/12/24 03:22:46;;;;;;;108.20;48.40;;;;;;;8.11;100.00;100363.50;5024630;28;20033;-65
2021/12/24 03:25:12;;;;;;;103.03;47.95;;;;;;;8.14;100.00;100366.63;5024599;28;20049;-65
2021/12/24 03:27:37;;;;;;;94.57;43.47;;;;;;;8.21;100.00;100361.94;5024029;28;20106;-65
2021/12/24 03:30:03;;;;;;;97.55;44.05;;;;;;;8.18;100.00;100373.31;5023802;28;20064;-65
2021/12/24 03:32:29;;;;;;;92.75;41.75;;;;;;;8.19;100.00;100366.78;5025001;28;20438;-65
2021/12/24 03:34:54;;;;;;;91.95;41.08;;;;;;;8.22;100.00;100371.00;5024565;28;20025;-64
2021/12/24 03:37:19;;;;;;;91.85;40.00;;;;;;;8.23;100.00;100372.66;5023893;28;20104;-65
2021/12/24 03:39:45;;;;;;;86.30;40.88;;;;;;;8.23;100.00;100376.22;5024571;28;20103;-65
2021/12/24 03:42:10;;;;;;;78.80;39.55;;;;;;;8.20;100.00;100370.34;5023609;28;20087;-65
2021/12/24 03:44:42;;;;;;;73.45;32.80;;;;;;;8.29;100.00;100372.56;5023995;28;20061;-65
2021/12/24 03:47:12;;;;;;;81.55;37.03;;;;;;;8.28;100.00;100378.28;5024351;28;20025;-65
2021/12/24 03:49:51;;;;;;;80.10;37.10;;;;;;;8.31;100.00;100373.19;5022689;28;20357;-65
2021/12/24 03:52:34;;;;;;;75.10;36.72;;;;;;;8.27;100.00;100377.44;5024178;28;20025;-65
2021/12/24 03:54:59;;;;;;;70.25;33.00;;;;;;;8.28;100.00;100381.84;5024640;28;20040;-65
2021/12/24 03:57:29;;;;;;;63.90;31.02;;;;;;;8.31;100.00;100378.66;5022592;28;20014;-65
2021/12/24 03:59:56;;;;;;;68.40;31.58;;;;;;;8.37;100.00;100384.31;5024269;28;20559;-65
2021/12/24 04:02:22;;;;;;;64.72;32.58;;;;;;;8.32;100.00;100382.25;5023570;28;20415;-64
2021/12/24 04:04:47;;;;;;;62.15;30.77;;;;;;;8.32;100.00;100377.59;5022572;28;20041;-65
2021/12/24 04:07:13;;;;;;;55.20;30.60;;;;;;;8.36;100.00;100374.38;5024044;28;20067;-65
2021/12/24 04:09:47;;;;;;;62.35;30.13;;;;;;;8.30;100.00;100376.97;5024102;28;20088;-65
2021/12/24 04:12:13;;;;;;;56.47;27.52;;;;;;;8.33;100.00;100376.53;5012042;28;20055;-65
2021/12/24 04:14:38;;;;;;;51.53;25.23;;;;;;;8.32;100.00;100363.91;5024226;28;20068;-65
2021/12/24 04:17:03;;;;;;;54.13;26.30;;;;;;;8.31;100.00;100367.72;5022999;28;20021;-65
2021/12/24 04:25:07;;;;;;;54.58;26.75;;;;;;;8.26;100.00;100389.47;5028032;28;20052;-65
2021/12/24 04:27:33;;;;;;;56.35;27.33;;;;;;;8.25;100.00;100395.97;5026464;28;20033;-65
2021/12/24 04:30:10;;;;;;;51.28;26.40;;;;;;;8.24;100.00;100388.84;5027735;28;20025;-65
2021/12/24 04:51:24;;;;;;;36.92;21.00;;;;;;;8.24;100.00;100372.41;5027621;28;20381;-65
2021/12/24 05:05:01;;;;;;;37.15;18.98;;;;;;;8.29;100.00;100374.47;5042474;28;20481;-65
2021/12/24 05:10:00;;;;;;;37.58;16.83;;;;;;;8.37;100.00;100378.84;5028084;28;20038;-65
2021/12/24 05:12:26;;;;;;;40.22;17.35;;;;;;;8.28;100.00;100379.13;5026099;28;20030;-65
2021/12/24 05:14:51;;;;;;;37.60;15.95;;;;;;;8.24;100.00;100377.88;5027355;28;20546;-65
2021/12/24 05:17:35;;;;;;;41.42;17.50;;;;;;;8.21;100.00;100378.34;5026755;28;20030;-65
2021/12/24 05:22:44;;;;;;;37.00;15.77;;;;;;;8.20;100.00;100373.09;5024047;28;20084;-65
2021/12/24 05:25:09;;;;;;;32.33;16.88;;;;;;;8.23;100.00;100369.91;5026678;28;20029;-65
2021/12/24 05:27:36;;;;;;;33.65;15.07;;;;;;;8.18;100.00;100384.28;5026019;28;20180;-65
2021/12/24 05:30:03;;;;;;;35.90;15.65;;;;;;;8.18;100.00;100378.81;5026407;28;20021;-65
2021/12/24 05:32:28;;;;;;;34.33;16.80;;;;;;;8.16;100.00;100391.88;5025518;28;20026;-65
2021/12/24 05:34:53;;;;;;;33.38;16.80;;;;;;;8.18;100.00;100387.00;5026744;28;20026;-65
2021/12/24 05:37:19;;;;;;;38.70;15.30;;;;;;;8.19;100.00;100382.38;5026867;28;20041;-65
2021/12/24 05:39:44;;;;;;;37.78;15.18;;;;;;;8.15;100.00;100392.09;5026707;28;20037;-65
2021/12/24 05:42:09;;;;;;;37.53;14.85;;;;;;;8.25;100.00;100386.94;5025528;28;20025;-65
2021/12/24 05:44:35;;;;;;;31.63;13.82;;;;;;;8.30;100.00;100393.38;5026800;28;20026;-65
2021/12/24 05:47:01;;;;;;;37.35;15.60;;;;;;;8.19;100.00;100401.50;5027414;28;20053;-65
2021/12/24 05:49:26;;;;;;;32.80;17.35;;;;;;;8.16;100.00;100397.34;5024959;28;20120;-65
2021/12/24 05:51:51;;;;;;;38.20;15.48;;;;;;;8.19;100.00;100401.50;5026641;28;20025;-65
2021/12/24 05:54:17;;;;;;;33.63;15.70;;;;;;;8.13;100.00;100397.78;5026554;28;20118;-65
2021/12/24 05:56:42;;;;;;;30.25;15.32;;;;;;;8.12;100.00;100396.13;5025349;28;20414;-65
2021/12/24 05:59:08;;;;;;;37.75;14.93;;;;;;;8.10;100.00;100403.69;5026642;28;20086;-65
2021/12/24 06:01:34;;;;;;;39.70;16.02;;;;;;;8.07;100.00;100399.53;5025852;28;20411;-65
2021/12/24 06:03:59;;;;;;;33.58;14.73;;;;;;;8.06;100.00;100403.34;5025864;28;20467;-65
2021/12/24 06:06:24;;;;;;;28.38;14.82;;;;;;;8.06;100.00;100410.72;5026174;28;20029;-65
2021/12/24 06:08:50;;;;;;;34.28;15.25;;;;;;;8.03;100.00;100409.25;5024884;28;20016;-65
2021/12/24 06:11:15;;;;;;;33.15;16.85;;;;;;;8.03;100.00;100402.94;5023704;28;20029;-65
2021/12/24 06:13:41;;;;;;;31.50;15.55;;;;;;;8.00;100.00;100406.94;5026225;28;20025;-65
2021/12/24 06:16:07;;;;;;;29.92;15.20;;;;;;;8.02;100.00;100406.75;5026064;28;20024;-65
2021/12/24 06:18:36;;;;;;;35.58;15.55;;;;;;;8.06;100.00;100405.25;5025767;28;20056;-65
2021/12/24 06:21:03;;;;;;;34.35;15.48;;;;;;;8.05;100.00;100407.09;5025647;28;20345;-65
2021/12/24 06:23:30;;;;;;;31.58;14.85;;;;;;;8.03;100.00;100413.88;5026188;28;20056;-65
2021/12/24 06:25:57;;;;;;;31.73;15.30;;;;;;;8.00;100.00;100422.53;5024399;28;20074;-65
2021/12/24 06:28:22;;;;;;;33.88;15.55;;;;;;;7.99;100.00;100407.19;5025869;28;20028;-65
2021/12/24 06:30:48;;;;;;;32.40;14.35;;;;;;;8.06;100.00;100416.19;5019472;28;20440;-65
2021/12/24 06:33:13;;;;;;;34.60;15.35;;;;;;;8.02;100.00;100413.03;5043697;28;20062;-65
2021/12/24 06:35:39;;;;;;;36.05;15.35;;;;;;;8.00;100.00;100417.06;5040690;28;20104;-65
2021/12/24 06:38:05;;;;;;;35.15;16.45;;;;;;;7.98;100.00;100419.19;5025627;28;20630;-65
2021/12/24 06:40:31;;;;;;;30.88;15.48;;;;;;;8.09;100.00;100409.41;5025469;28;20017;-66
2021/12/24 06:42:56;;;;;;;37.53;15.40;;;;;;;7.98;100.00;100416.44;5024767;28;20155;-66
2021/12/24 06:45:24;;;;;;;35.88;14.65;;;;;;;7.98;100.00;100400.03;5024143;28;20691;-65
2021/12/24 06:47:55;;;;;;;28.13;13.40;;;;;;;8.03;100.00;100403.78;5025976;28;20017;-66
2021/12/24 06:50:21;;;;;;;35.35;14.75;;;;;;;8.00;100.00;100403.38;5025244;28;20092;-66
2021/12/24 06:52:46;;;;;;;31.27;14.32;;;;;;;8.00;100.00;100408.84;5025829;28;20045;-65
2021/12/24 06:55:12;;;;;;;31.08;14.82;;;;;;;7.96;100.00;100418.59;5025327;28;20033;-65
2021/12/24 06:57:40;;;;;;;38.35;16.02;;;;;;;7.98;100.00;100413.72;5024851;28;20044;-66
2021/12/24 07:00:11;;;;;;;35.70;14.82;;;;;;;7.98;100.00;100411.81;5025137;28;20113;-65
2021/12/24 07:02:36;;;;;;;28.20;13.80;;;;;;;7.99;100.00;100410.75;5020804;28;20338;-65
2021/12/24 07:05:02;;;;;;;33.15;15.23;;;;;;;7.95;100.00;100416.88;5038446;28;20036;-65
2021/12/24 07:07:27;;;;;;;30.80;14.13;;;;;;;8.04;100.00;100410.06;5045660;28;20029;-65
2021/12/24 07:09:53;;;;;;;37.20;15.10;;;;;;;8.01;100.00;100410.53;5025298;28;20025;-65
2021/12/24 07:12:18;;;;;;;31.40;12.27;;;;;;;8.12;100.00;100398.84;5022959;28;20025;-66
2021/12/24 07:14:44;;;;;;;38.35;15.65;;;;;;;7.98;100.00;100394.56;5024043;28;20032;-65
2021/12/24 07:17:10;;;;;;;39.25;15.45;;;;;;;7.95;100.00;100405.94;5024843;28;20032;-65
2021/12/24 07:19:36;;;;;;;36.10;16.23;;;;;;;7.92;100.00;100401.78;5025216;28;20033;-65
2021/12/24 07:22:02;;;;;;;38.42;15.88;;;;;;;7.91;100.00;100410.22;5025358;28;20064;-66
2021/12/24 07:24:27;;;;;;;37.88;13.88;;;;;;;8.02;100.00;100412.22;5024270;28;20030;-65
2021/12/24 07:26:52;;;;;;;32.70;14.85;;;;;;;7.95;100.00;100416.88;5023865;28;20017;-65
2021/12/24 07:29:18;;;;;;;36.10;15.45;;;;;;;7.94;100.00;100420.69;5025034;28;20482;-65
2021/12/24 07:31:43;;;;;;;37.08;14.43;;;;;;;7.94;100.00;100420.69;5025156;28;20030;-65
2021/12/24 07:34:08;;;;;;;33.67;14.02;;;;;;;8.03;100.00;100430.28;5024574;28;20029;-65
2021/12/24 07:36:34;;;;;;;31.38;12.68;;;;;;;8.04;100.00;100418.28;5024975;28;20404;-65
2021/12/24 07:38:59;;;;;;;32.45;13.38;;;;;;;8.04;100.00;100410.91;5025667;28;20055;-65
2021/12/24 07:41:25;;;;;;;36.45;14.15;;;;;;;8.04;100.00;100415.53;5023481;28;20499;-65
2021/12/24 07:43:51;;;;;;;33.67;16.40;;;;;;;8.00;100.00;100425.25;5024638;28;20029;-65
2021/12/24 07:46:17;;;;;;;33.00;15.05;;;;;;;8.02;100.00;100420.41;5024767;28;20030;-65
2021/12/24 07:48:48;;;;;;;30.70;15.35;;;;;;;7.96;100.00;100424.88;5024014;28;20368;-65
2021/12/24 07:54:00;;;;;;;34.67;15.68;;;;;;;7.97;100.00;100426.56;5044516;28;20495;-65
2021/12/24 07:56:28;;;;;;;36.25;15.75;;;;;;;8.00;100.00;100428.00;5041039;28;20441;-65
2021/12/24 07:58:54;;;;;;;35.85;15.93;;;;;;;8.03;100.00;100428.38;5024486;28;20399;-65
2021/12/24 08:01:25;;;;;;;31.23;14.98;;;;;;;8.02;100.00;100431.34;5024036;28;20087;-65
2021/12/24 08:03:52;;;;;;;34.05;15.05;;;;;;;7.95;100.00;100423.19;5024510;28;20045;-65
2021/12/24 08:06:17;;;;;;;35.33;14.95;;;;;;;7.97;100.00;100429.28;5024345;28;20057;-65
2021/12/24 08:08:42;;;;;;;34.80;14.70;;;;;;;7.99;100.00;100424.41;5024361;28;20127;-65
2021/12/24 08:11:08;;;;;;;30.38;15.00;;;;;;;7.97;100.00;100418.34;5022603;28;20540;-65
2021/12/24 08:13:33;;;;;;;35.60;14.40;;;;;;;7.97;100.00;100429.28;5023602;28;20183;-65
2021/12/24 08:16:00;;;;;;;35.65;15.40;;;;;;;7.99;100.00;100421.69;5022988;28;20076;-65
2021/12/24 08:18:25;;;;;;;33.15;14.82;;;;;;;8.01;100.00;100426.94;5024018;28;20044;-65
2021/12/24 08:20:50;;;;;;;33.65;14.93;;;;;;;8.01;100.00;100421.47;5023914;28;20476;-65
2021/12/24 08:23:16;;;;;;;32.47;14.18;;;;;;;8.03;100.00;100420.19;5023479;28;20029;-65
2021/12/24 08:25:41;;;;;;;27.90;11.77;;;;;;;8.00;100.00;100414.31;5022557;28;20036;-65
2021/12/24 08:28:06;;;;;;;35.67;14.40;;;;;;;8.03;99.85;100403.78;5023905;28;20546;-65
2021/12/24 08:30:32;;;;;;;37.75;14.55;;;;;;;8.10;99.25;100398.22;5023042;28;20036;-65
2021/12/24 08:33:00;;;;;;;38.30;15.45;;;;;;;8.07;99.37;100398.69;5016654;28;20036;-66
2021/12/24 08:35:25;;;;;;;35.35;13.95;;;;;;;8.13;98.64;100414.19;5023705;28;20439;-65
2021/12/24 08:37:51;;;;;;;29.33;13.40;;;;;;;8.11;98.90;100410.88;5024080;28;20037;-65
2021/12/24 08:40:16;;;;;;;33.03;12.82;;;;;;;8.13;98.98;100414.19;5021650;28;20467;-64
2021/12/24 08:42:42;;;;;;;28.30;12.65;;;;;;;8.12;99.24;100415.28;5023303;28;20025;-64
2021/12/24 08:45:08;;;;;;;30.27;11.98;;;;;;;8.24;98.37;100421.66;5023125;28;20034;-64
2021/12/24 08:47:33;;;;;;;29.67;12.30;;;;;;;8.20;97.99;100414.97;5022757;28;20033;-64
2021/12/24 08:49:59;;;;;;;32.45;13.60;;;;;;;8.17;98.52;100418.16;5024221;28;20010;-64
2021/12/24 08:52:24;;;;;;;36.90;14.35;;;;;;;8.13;98.96;100413.38;5023078;28;20025;-64
2021/12/24 08:54:49;;;;;;;37.97;14.20;;;;;;;8.11;99.27;100402.66;5021803;28;20033;-64
2021/12/24 08:57:15;;;;;;;33.97;13.88;;;;;;;8.17;98.38;100403.66;5021998;28;20067;-64
2021/12/24 08:59:40;;;;;;;32.20;13.75;;;;;;;8.14;98.91;100404.09;5023473;28;20030;-64
2021/12/24 09:02:05;;;;;;;32.05;14.57;;;;;;;8.15;99.16;100401.13;5022081;28;20018;-64
2021/12/24 09:04:31;;;;;;;30.77;12.90;;;;;;;8.33;97.57;100401.16;5029592;28;20049;-64
2021/12/24 09:06:56;;;;;;;34.10;15.77;;;;;;;8.24;98.45;100404.41;5009547;28;20026;-63
2021/12/24 09:09:22;;;;;;;38.50;15.88;;;;;;;8.26;98.04;100397.66;5026752;28;20032;-64
2021/12/24 09:11:47;;;;;;;34.47;15.48;;;;;;;8.27;98.45;100402.06;5018733;28;20538;-64
2021/12/24 09:14:18;;;;;;;35.10;15.43;;;;;;;8.25;98.58;100401.44;5017060;28;20030;-64
2021/12/24 09:16:45;;;;;;;31.25;13.80;;;;;;;8.28;98.59;100403.72;5024658;28;20384;-64
2021/12/24 09:19:14;;;;;;;33.35;15.88;;;;;;;8.31;98.40;100406.03;5021896;28;20036;-64
2021/12/24 09:21:40;;;;;;;30.10;14.77;;;;;;;8.25;98.76;100406.06;5025894;28;20032;-64
2021/12/24 09:24:07;;;;;;;37.47;16.35;;;;;;;8.24;98.61;100405.25;5023719;28;20026;-64
2021/12/24 09:26:33;;;;;;;33.90;14.85;;;;;;;8.33;97.99;100403.06;5025360;28;20579;-64
2021/12/24 09:28:59;;;;;;;36.25;16.10;;;;;;;8.21;99.12;100396.66;5024058;28;20116;-65
2021/12/24 09:31:25;;;;;;;36.45;15.35;;;;;;;8.20;98.31;100404.00;5023803;28;20032;-64
2021/12/24 09:33:51;;;;;;;36.00;15.85;;;;;;;8.21;98.48;100399.38;5023751;28;20037;-64
2021/12/24 09:36:23;;;;;;;35.60;15.25;;;;;;;8.17;98.85;100400.91;5025482;28;20099;-65
2021/12/24 09:38:49;;;;;;;36.05;15.75;;;;;;;8.15;99.19;100406.59;5019955;28;20100;-65
2021/12/24 09:41:14;;;;;;;31.88;15.13;;;;;;;8.16;99.07;100402.81;5024045;28;20827;-64
2021/12/24 09:43:39;;;;;;;35.35;15.23;;;;;;;8.21;98.63;100402.97;5019029;28;20083;-64
2021/12/24 09:46:04;;;;;;;34.88;14.98;;;;;;;8.23;98.88;100402.75;5014101;28;20392;-64
2021/12/24 09:48:30;;;;;;;31.27;14.45;;;;;;;8.20;99.09;100414.97;5023690;28;20396;-65
2021/12/24 09:50:55;;;;;;;34.65;14.55;;;;;;;8.22;99.13;100410.13;5025043;28;20029;-65
2021/12/24 09:53:20;;;;;;;32.95;14.38;;;;;;;8.23;99.07;100406.31;5025056;28;20246;-63
2021/12/24 09:55:46;;;;;;;37.60;13.13;;;;;;;8.25;98.73;100398.69;5024760;28;20037;-63
2021/12/24 09:58:11;;;;;;;31.42;12.65;;;;;;;8.26;98.86;100392.19;5025343;28;20394;-63
2021/12/24 10:00:36;;;;;;;30.85;13.20;;;;;;;8.29;98.41;100396.34;5025308;28;20040;-63
2021/12/24 10:03:02;;;;;;;36.05;12.57;;;;;;;8.29;98.09;100390.88;5025730;28;20077;-63
2021/12/24 10:05:40;;;;;;;32.35;14.85;;;;;;;8.27;98.41;100393.03;5026216;28;20140;-65
2021/12/24 10:08:18;;;;;;;31.13;13.63;;;;;;;8.29;97.82;100391.72;5010332;28;20128;-64
2021/12/24 10:10:45;;;;;;;32.60;11.93;;;;;;;8.46;96.50;100388.41;5005149;28;20044;-63
2021/12/24 10:13:34;;;;;;;35.53;13.20;;;;;;;8.45;96.85;100384.84;5021441;28;20013;-64
2021/12/24 10:16:04;;;;;;;34.42;12.02;;;;;;;8.35;96.78;100394.63;5021024;28;20042;-64
2021/12/24 10:18:33;;;;;;;30.80;13.02;;;;;;;8.30;97.57;100401.59;5024915;28;20017;-64
2021/12/24 10:21:15;;;;;;;30.00;10.93;;;;;;;8.45;96.86;100401.25;5025544;28;20052;-64
2021/12/24 10:24:02;;;;;;;37.88;13.70;;;;;;;8.42;97.09;100400.91;5021647;28;20057;-64
2021/12/24 10:26:49;;;;;;;34.88;13.63;;;;;;;8.48;97.47;100392.59;5022804;28;20036;-64
2021/12/24 10:29:15;;;;;;;35.28;14.23;;;;;;;8.53;96.84;100395.50;5025158;28;20061;-64
2021/12/24 10:31:50;;;;;;;33.83;13.20;;;;;;;8.64;96.19;100399.38;5025174;28;20090;-64
2021/12/24 10:34:19;;;;;;;34.83;13.65;;;;;;;8.67;95.83;100398.06;5024408;28;20026;-64
2021/12/24 10:36:55;;;;;;;36.55;15.80;;;;;;;8.67;96.19;100390.69;5025138;28;20033;-64
2021/12/24 10:39:41;;;;;;;34.67;15.98;;;;;;;8.68;96.30;100386.91;5024309;28;20032;-64
2021/12/24 10:42:14;;;;;;;35.70;14.52;;;;;;;8.75;96.01;100393.13;5019403;28;20060;-64
2021/12/24 10:44:41;;;;;;;32.45;13.63;;;;;;;8.80;95.70;100384.22;5025725;28;20177;-64
2021/12/24 10:47:17;;;;;;;39.40;15.32;;;;;;;8.77;96.03;100388.25;5023294;28;20037;-64
2021/12/24 10:55:45;;;;;;;37.72;14.80;;;;;;;8.81;95.19;100385.88;5010600;28;20042;-64
2021/12/24 10:58:30;;;;;;;37.40;14.75;;;;;;;8.69;95.77;100383.09;5005144;28;20069;-64
2021/12/24 11:00:58;;;;;;;33.08;15.23;;;;;;;8.68;95.75;100392.38;5024463;28;20021;-64
2021/12/24 11:03:27;;;;;;;33.97;15.80;;;;;;;8.66;95.75;100386.28;5021671;28;20046;-64
2021/12/24 11:05:55;;;;;;;31.85;14.60;;;;;;;8.58;96.38;100387.44;5005156;28;20451;-64
2021/12/24 11:08:23;;;;;;;35.47;15.05;;;;;;;8.54;96.36;100396.31;5026496;28;20022;-64
2021/12/24 11:10:51;;;;;;;35.35;14.52;;;;;;;8.55;96.51;100384.31;5026642;28;20408;-64
2021/12/24 11:13:18;;;;;;;;;;;;;;;8.63;96.45;100384.00;5022745;28;20056;-64
2021/12/24 11:15:49;;;;;;;34.72;15.77;;;;;;;8.59;95.71;100380.06;5024068;28;19982;-64
2021/12/24 11:18:33;;;;;;;40.72;15.18;;;;;;;8.65;96.15;100383.78;5024059;28;20055;-64
2021/12/24 11:21:03;;;;;;;32.88;14.43;;;;;;;8.63;95.81;100386.75;5022055;28;20034;-63
2021/12/24 11:23:31;;;;;;;37.80;15.27;;;;;;;8.67;95.72;100385.22;5025343;28;20102;-64
2021/12/24 11:25:59;;;;;;;;;;;;;;;8.78;94.91;100378.97;5023593;28;20017;-64
2021/12/24 11:28:26;;;;;;;41.17;16.48;;;;;;;8.64;95.56;100379.38;5023863;28;19924;-64
2021/12/24 11:30:55;;;;;;;44.67;16.35;;;;;;;8.58;95.89;100381.13;5028063;28;20028;-64
2021/12/24 11:33:25;;;;;;;40.63;16.65;;;;;;;8.55;96.30;100378.84;5043702;28;20029;-64
2021/12/24 11:35:52;;;;;;;39.65;17.48;;;;;;;8.59;96.45;100382.78;5028288;28;20036;-64
2021/12/24 11:38:20;;;;;;;41.97;16.60;;;;;;;8.63;96.51;100385.91;5024846;28;20400;-64
2021/12/24 11:40:47;;;;;;;38.70;16.10;;;;;;;8.67;96.49;100373.41;5022989;28;20435;-64
2021/12/24 11:43:14;;;;;;;38.03;17.02;;;;;;;8.69;96.66;100385.81;5023370;28;20113;-64
2021/12/24 11:45:40;;;;;;;35.08;15.38;;;;;;;8.72;96.13;100379.06;5023415;28;20025;-64
2021/12/24 11:48:06;;;;;;;32.08;15.43;;;;;;;8.75;96.33;100376.69;5022936;28;20045;-64
2021/12/24 11:50:33;;;;;;;42.60;18.23;;;;;;;8.78;96.04;100378.97;5028943;28;20554;-64
2021/12/24 11:53:01;;;;;;;33.45;16.58;;;;;;;8.87;95.75;100373.16;5023732;28;20024;-64
2021/12/24 11:55:34;;;;;;;34.03;15.25;;;;;;;8.92;95.09;100367.81;5022036;28;20413;-64
2021/12/24 11:58:09;;;;;;;44.30;17.73;;;;;;;8.90;95.44;100369.97;5028591;28;20140;-64
2021/12/24 12:00:40;;;;;;;37.45;16.52;;;;;;;8.91;94.79;100374.38;5023704;28;20029;-64
2021/12/24 12:03:06;;;;;;;47.40;17.90;;;;;;;8.90;95.39;100367.22;5023800;28;20500;-64
2021/12/24 12:05:37;;;;;;;40.55;17.60;;;;;;;8.94;94.41;100360.22;5020043;28;20041;-64
2021/12/24 12:08:33;;;;;;;31.10;16.30;;;;;;;9.05;94.89;100367.66;5024418;28;20072;-64
2021/12/24 12:11:14;;;;;;;41.45;17.05;;;;;;;8.97;94.84;100362.50;5022962;28;20041;-64
2021/12/24 12:14:13;;;;;;;46.13;17.13;;;;;;;9.03;94.51;100365.16;5022736;28;20021;-64
2021/12/24 12:16:39;;;;;;;43.13;18.45;;;;;;;8.96;94.66;100360.81;5023190;28;20044;-64
2021/12/24 12:19:17;;;;;;;35.42;17.30;;;;;;;8.97;94.71;100348.78;5022866;28;20026;-64
2021/12/24 12:22:18;;;;;;;40.38;17.27;;;;;;;9.04;94.49;100344.06;5014783;28;20754;-65
2021/12/24 12:25:24;;;;;;;40.78;19.50;;;;;;;9.07;94.07;100349.06;5010736;28;20559;-65
2021/12/24 12:27:54;;;;;;;40.17;17.77;;;;;;;8.96;94.41;100358.91;5021629;28;20036;-64
2021/12/24 12:30:29;;;;;;;37.83;18.50;;;;;;;8.94;94.07;100354.75;5022425;28;20033;-64
2021/12/24 12:33:05;;;;;;;42.08;20.23;;;;;;;8.94;94.75;100354.75;5022095;28;20553;-63
2021/12/24 12:35:37;;;;;;;38.00;17.70;;;;;;;8.96;94.64;100356.19;5022490;28;20026;-64
2021/12/24 12:38:22;;;;;;;41.85;18.88;;;;;;;9.00;94.77;100353.81;5015349;28;20116;-64
2021/12/24 12:40:48;;;;;;;37.58;17.88;;;;;;;9.01;94.04;100355.47;5023962;28;20028;-64
2021/12/24 12:43:14;;;;;;;44.60;20.00;;;;;;;8.96;94.68;100363.56;5025749;28;20464;-64
2021/12/24 12:45:41;;;;;;;42.63;18.60;;;;;;;8.97;94.54;100354.28;5025479;28;20040;-64
2021/12/24 12:48:12;;;;;;;41.30;18.08;;;;;;;9.07;93.38;100354.53;5025531;28;20037;-64
2021/12/24 12:50:49;;;;;;;41.10;18.25;;;;;;;9.01;93.87;100356.31;5025873;28;20037;-64
2021/12/24 12:53:35;;;;;;;37.20;17.65;;;;;;;8.99;94.30;100352.16;5025829;28;20029;-64
2021/12/24 12:56:23;;;;;;;34.72;17.27;;;;;;;9.01;93.95;100356.31;5023991;28;20067;-64
2021/12/24 12:58:50;;;;;;;;;;;;;;;9.04;93.89;100355.03;5022655;28;20044;-64
2021/12/24 13:01:20;;;;;;;35.83;17.02;;;;;;;8.99;93.78;100360.38;5026541;28;19917;-64
2021/12/24 13:03:54;;;;;;;39.70;17.90;;;;;;;8.98;94.34;100356.81;5025359;28;20064;-64